Time;durP1;ratioP1;P1;durP2;ratioP2;P2;SDS_P1;SDS_P2;PMS_P1;PMS_P2;Temp;Humidity;BMP_temperature;BMP_pressure;BME280_temperature;BME280_humidity;BME280_pressure;Samples;Min_cycle;Max_cycle;Signal;HPM_P1;HPM_P2
2021/04/03 00:01:09;;;;;;;12.70;5.22;;;;;;;5.37;87.17;101019.13;5007467;28;20120;-73
2021/04/03 00:03:36;;;;;;;11.18;4.38;;;;;;;5.37;87.26;101024.34;5008950;28;20076;-74
2021/04/03 00:06:03;;;;;;;11.02;4.40;;;;;;;5.27;87.77;101026.38;4991619;28;20142;-74
2021/04/03 00:08:29;;;;;;;13.63;4.30;;;;;;;5.24;86.83;101029.94;4984414;28;20141;-74
2021/04/03 00:11:03;;;;;;;10.18;4.93;;;;;;;5.08;87.54;101034.75;5016599;28;20138;-72
2021/04/03 00:13:40;;;;;;;17.90;4.95;;;;;;;5.13;86.77;101031.16;4989899;28;20054;-74
2021/04/03 00:16:10;;;;;;;10.60;4.13;;;;;;;5.04;87.71;101033.16;5001849;28;20535;-72
2021/04/03 00:18:37;;;;;;;11.13;4.53;;;;;;;5.09;87.78;101033.03;4990204;28;20141;-73
2021/04/03 00:21:03;;;;;;;14.60;6.38;;;;;;;5.07;86.73;101035.66;5004438;28;20058;-73
2021/04/03 00:23:31;;;;;;;10.35;4.20;;;;;;;4.90;86.42;101034.44;5007722;28;20444;-73
2021/04/03 00:25:58;;;;;;;12.68;4.20;;;;;;;4.97;86.12;101029.00;5006113;28;20220;-73
2021/04/03 00:28:24;;;;;;;13.35;4.57;;;;;;;4.96;85.91;101037.75;5006806;28;20522;-73
2021/04/03 00:30:51;;;;;;;9.70;4.32;;;;;;;4.94;85.94;101023.88;5007190;28;20428;-73
2021/04/03 00:33:18;;;;;;;14.70;3.88;;;;;;;4.98;86.48;101020.28;5011391;28;20046;-72
2021/04/03 00:35:45;;;;;;;12.90;4.85;;;;;;;4.92;86.59;101022.22;5010475;28;20042;-74
2021/04/03 00:38:12;;;;;;;12.40;4.63;;;;;;;4.77;86.54;101026.09;5009523;28;20050;-73
2021/04/03 00:40:44;;;;;;;14.07;4.80;;;;;;;4.68;87.39;101029.81;4992153;28;20064;-71
2021/04/03 00:43:16;;;;;;;13.80;4.65;;;;;;;4.72;87.52;101030.59;4991025;28;20137;-72
2021/04/03 00:45:44;;;;;;;10.35;4.68;;;;;;;4.69;87.92;101025.50;5008555;28;20041;-74
2021/04/03 00:48:11;;;;;;;11.90;4.50;;;;;;;4.60;88.19;101033.56;4988128;28;20054;-73
2021/04/03 00:50:41;;;;;;;10.13;4.35;;;;;;;4.55;88.03;101033.69;5009550;28;20050;-72
2021/04/03 00:53:09;;;;;;;9.32;4.82;;;;;;;4.54;88.45;101039.78;4993165;28;20428;-74
2021/04/03 00:55:36;;;;;;;11.02;4.30;;;;;;;4.52;88.39;101037.22;5008898;28;20049;-71
2021/04/03 00:58:03;;;;;;;9.52;4.90;;;;;;;4.45;88.23;101042.66;5010283;28;20057;-72
2021/04/03 01:00:30;;;;;;;12.15;4.68;;;;;;;4.37;88.84;101044.59;4991469;28;20058;-73
2021/04/03 01:02:57;;;;;;;14.25;4.72;;;;;;;4.45;88.41;101046.09;5009615;28;20483;-73
2021/04/03 01:09:38;;;;;;;11.98;5.25;;;;;;;4.22;89.45;101051.94;5003067;28;20085;-72
2021/04/03 01:12:20;;;;;;;9.23;5.20;;;;;;;4.23;89.67;101048.44;5008731;28;20141;-71
2021/04/03 01:14:59;;;;;;;10.48;4.13;;;;;;;4.17;89.63;101050.34;5003458;28;20579;-74
2021/04/03 01:17:36;;;;;;;10.02;4.60;;;;;;;4.19;89.64;101046.81;4994876;28;20137;-73
2021/04/03 01:20:22;;;;;;;13.43;4.80;;;;;;;4.13;89.48;101052.16;4991844;28;20073;-73
2021/04/03 01:23:01;;;;;;;17.85;6.07;;;;;;;4.12;89.33;101052.22;4997162;28;20050;-73
2021/04/03 01:25:49;;;;;;;12.80;4.63;;;;;;;4.07;89.40;101054.94;4990956;28;20497;-73
2021/04/03 01:28:51;;;;;;;15.18;5.25;;;;;;;4.01;90.25;101057.72;4991784;28;20161;-72
2021/04/03 01:31:18;;;;;;;14.20;4.97;;;;;;;3.87;90.48;101060.63;4991264;28;20070;-73
2021/04/03 01:33:46;;;;;;;12.25;5.18;;;;;;;3.86;91.18;101056.31;4996365;28;20042;-73
2021/04/03 01:36:16;;;;;;;17.70;5.68;;;;;;;3.92;90.74;101060.53;5010159;28;20053;-73
2021/04/03 01:38:58;;;;;;;28.13;6.47;;;;;;;3.95;90.79;101063.91;5007919;28;20473;-72
2021/04/03 01:41:26;;;;;;;19.13;6.25;;;;;;;3.93;89.85;101057.88;5007771;28;20054;-72
2021/04/03 01:43:54;;;;;;;15.00;5.85;;;;;;;3.85;90.02;101051.16;4993045;28;20046;-73
2021/04/03 01:46:27;;;;;;;9.80;5.22;;;;;;;3.76;90.35;101054.81;4993374;28;20372;-74
2021/04/03 01:48:56;;;;;;;12.13;5.45;;;;;;;3.68;90.72;101054.16;4992438;28;20474;-71
2021/04/03 01:51:23;;;;;;;10.00;4.65;;;;;;;3.69;90.17;101058.47;4992695;28;20547;-72
2021/04/03 01:53:50;;;;;;;10.30;4.30;;;;;;;3.74;90.11;101061.84;4994085;28;20050;-72
2021/04/03 01:56:19;;;;;;;10.23;6.22;;;;;;;3.77;90.04;101064.34;4990154;28;20141;-72
2021/04/03 01:58:46;;;;;;;16.02;6.00;;;;;;;3.80;89.56;101070.34;4991882;28;20089;-75
2021/04/03 02:01:15;;;;;;;11.85;5.03;;;;;;;3.80;89.11;101074.69;4976379;28;20132;-72
2021/04/03 02:03:43;;;;;;;13.57;4.80;;;;;;;3.66;89.21;101076.78;4979476;28;20397;-73
2021/04/03 02:06:12;;;;;;;16.98;5.00;;;;;;;3.63;90.23;101082.91;4995217;28;20053;-73
2021/04/03 02:08:39;;;;;;;11.30;4.70;;;;;;;3.58;90.05;101083.91;4977439;28;20133;-72
2021/04/03 02:11:07;;;;;;;14.50;5.00;;;;;;;3.53;89.93;101087.47;4990817;28;20058;-73
2021/04/03 02:13:34;;;;;;;11.45;5.53;;;;;;;3.50;90.49;101081.47;4995679;28;20572;-74
2021/04/03 02:16:03;;;;;;;12.88;5.13;;;;;;;3.47;90.86;101085.00;5009015;28;20100;-72
2021/04/03 02:18:30;;;;;;;17.13;5.05;;;;;;;3.33;90.90;101087.03;4982581;28;20419;-73
2021/04/03 02:21:05;;;;;;;11.02;4.57;;;;;;;3.39;91.46;101084.31;5003169;28;20046;-72
2021/04/03 02:23:32;;;;;;;11.68;4.68;;;;;;;3.44;90.12;101105.88;5017273;28;20531;-75
2021/04/03 02:26:01;;;;;;;12.13;5.15;;;;;;;3.41;90.35;101097.28;4990716;28;20057;-72
2021/04/03 02:28:28;;;;;;;11.15;5.30;;;;;;;3.39;90.38;101096.47;4994207;28;20136;-73
2021/04/03 02:30:54;;;;;;;11.02;5.15;;;;;;;3.41;90.42;101094.69;5015909;28;20133;-73
2021/04/03 02:33:21;;;;;;;14.55;5.03;;;;;;;3.40;90.71;101095.56;4993093;28;20125;-72
2021/04/03 02:35:48;;;;;;;13.32;5.93;;;;;;;3.39;90.41;101094.72;4990039;28;20096;-73
2021/04/03 02:38:15;;;;;;;17.27;5.22;;;;;;;3.38;90.35;101097.34;5009201;28;20053;-74
2021/04/03 02:40:42;;;;;;;11.88;5.95;;;;;;;3.26;91.12;101094.13;4988926;28;20122;-73
2021/04/03 02:43:27;;;;;;;9.63;5.10;;;;;;;3.36;90.36;101104.34;4990096;28;20910;-73
2021/04/03 02:46:06;;;;;;;12.63;5.03;;;;;;;3.34;90.59;101108.72;5007099;28;20074;-72
2021/04/03 02:48:36;;;;;;;12.15;5.32;;;;;;;3.32;90.63;101113.09;4981520;28;20065;-74
2021/04/03 02:51:04;;;;;;;11.18;5.38;;;;;;;3.24;90.60;101116.72;4989901;28;20581;-74
2021/04/03 02:53:32;;;;;;;17.35;5.90;;;;;;;3.24;90.47;101110.66;4974246;28;20088;-74
2021/04/03 02:56:02;;;;;;;15.07;5.20;;;;;;;3.24;90.43;101121.03;5005259;28;20046;-73
2021/04/03 02:58:33;;;;;;;16.20;5.55;;;;;;;3.25;90.32;101128.84;5007451;28;20534;-73
2021/04/03 03:01:00;;;;;;;11.30;4.72;;;;;;;3.18;90.94;101132.44;4987746;28;20061;-72
2021/04/03 03:03:30;;;;;;;12.73;5.10;;;;;;;3.10;91.00;101138.69;4992399;28;20163;-74
2021/04/03 03:05:58;;;;;;;16.27;6.10;;;;;;;3.04;91.17;101140.53;5005944;28;20125;-72
2021/04/03 03:08:26;;;;;;;15.10;5.30;;;;;;;3.02;91.06;101134.50;5007558;28;20081;-74
2021/04/03 03:10:54;;;;;;;10.07;4.78;;;;;;;2.95;91.60;101127.69;4994190;28;20077;-72
2021/04/03 03:13:21;;;;;;;17.67;5.68;;;;;;;2.98;91.17;101132.00;5001119;28;20081;-74
2021/04/03 03:15:48;;;;;;;12.77;5.82;;;;;;;2.90;91.63;101142.53;5017855;28;20105;-74
2021/04/03 03:18:16;;;;;;;15.18;5.75;;;;;;;2.87;91.81;101137.38;4990602;28;20091;-71
2021/04/03 03:20:44;;;;;;;12.38;5.18;;;;;;;2.89;92.03;101143.44;4993033;28;20049;-73
2021/04/03 03:23:12;;;;;;;16.85;5.68;;;;;;;2.80;91.95;101143.63;4992918;28;20144;-72
2021/04/03 03:25:39;;;;;;;26.98;6.75;;;;;;;2.78;92.18;101138.41;4966388;28;20050;-73
2021/04/03 03:28:06;;;;;;;9.80;5.10;;;;;;;2.78;92.10;101143.63;4991198;28;20079;-73
2021/04/03 03:30:33;;;;;;;12.60;5.13;;;;;;;2.78;92.14;101145.38;4991773;28;20054;-73
2021/04/03 03:33:00;;;;;;;11.75;4.53;;;;;;;2.74;92.49;101152.34;4999883;28;20060;-74
2021/04/03 03:35:27;;;;;;;11.93;5.65;;;;;;;2.69;92.45;101151.59;4997195;28;20148;-73
2021/04/03 03:37:54;;;;;;;12.30;5.47;;;;;;;2.72;92.66;101154.16;4988168;28;20073;-73
2021/04/03 03:40:21;;;;;;;14.13;5.13;;;;;;;2.72;92.61;101154.16;4992854;28;20203;-72
2021/04/03 03:42:48;;;;;;;12.63;5.55;;;;;;;2.65;92.61;101154.28;4972590;28;20108;-72
2021/04/03 03:45:15;;;;;;;17.05;5.88;;;;;;;2.76;92.25;101149.75;4989694;28;20146;-74
2021/04/03 03:47:41;;;;;;;11.43;5.07;;;;;;;2.66;92.53;101156.88;4980565;28;20133;-73
2021/04/03 03:50:10;;;;;;;14.52;6.57;;;;;;;2.69;92.81;101153.34;5012343;28;20152;-73
2021/04/03 03:52:37;;;;;;;11.63;5.13;;;;;;;2.75;92.64;101166.25;5004890;28;20532;-73
2021/04/03 03:55:05;;;;;;;20.42;6.25;;;;;;;2.68;92.83;101157.69;4996683;28;20080;-78
2021/04/03 03:57:33;;;;;;;11.93;4.88;;;;;;;2.73;92.36;101158.44;4993983;28;20718;-74
2021/04/03 04:00:00;;;;;;;14.82;6.10;;;;;;;2.60;92.59;101156.09;4989073;28;21083;-73
2021/04/03 04:02:26;;;;;;;19.50;5.97;;;;;;;2.70;92.37;101168.03;5003294;28;20141;-74
2021/04/03 04:04:53;;;;;;;12.40;5.75;;;;;;;2.62;92.52;101169.94;4989748;28;20586;-74
2021/04/03 04:07:20;;;;;;;11.75;4.85;;;;;;;2.52;93.39;101164.91;4992323;28;20595;-73
2021/04/03 04:09:47;;;;;;;17.80;6.07;;;;;;;2.63;93.08;101163.84;5010326;28;20054;-73
2021/04/03 04:12:14;;;;;;;13.23;6.32;;;;;;;2.61;93.21;101157.81;5009028;28;20137;-73
2021/04/03 04:14:40;;;;;;;14.32;5.78;;;;;;;2.58;93.27;101157.88;4992344;28;20109;-72
2021/04/03 04:17:07;;;;;;;13.65;5.60;;;;;;;2.58;92.93;101165.69;5007726;28;20129;-72
2021/04/03 04:19:34;;;;;;;12.38;5.05;;;;;;;2.59;92.88;101157.84;4992003;28;20085;-73
2021/04/03 04:22:02;;;;;;;12.88;5.78;;;;;;;2.55;93.12;101156.19;4991666;28;20090;-74
2021/04/03 04:24:29;;;;;;;16.60;5.72;;;;;;;2.45;93.38;101160.69;4995205;28;20136;-74
2021/04/03 04:26:56;;;;;;;16.88;6.43;;;;;;;2.52;93.15;101157.09;5002986;28;20133;-72
2021/04/03 04:29:23;;;;;;;11.15;5.55;;;;;;;2.59;92.60;101165.63;5006347;28;20060;-73
2021/04/03 04:31:50;;;;;;;18.20;5.40;;;;;;;2.64;92.45;101171.63;4990986;28;20045;-72
2021/04/03 04:34:16;;;;;;;13.45;5.95;;;;;;;2.57;92.58;101180.41;4992302;28;20093;-73
2021/04/03 04:36:43;;;;;;;19.90;6.18;;;;;;;2.43;93.05;101179.75;4992411;28;20073;-72
2021/04/03 04:39:10;;;;;;;16.05;6.35;;;;;;;2.50;93.24;101186.59;4990666;28;20159;-73
2021/04/03 04:41:37;;;;;;;16.58;6.63;;;;;;;2.52;92.85;101196.09;4987016;28;20129;-73
2021/04/03 04:44:04;;;;;;;9.48;5.22;;;;;;;2.59;92.60;101183.84;4994108;28;20050;-72
2021/04/03 04:46:31;;;;;;;10.80;6.13;;;;;;;2.58;92.86;101186.47;4975553;28;20050;-73
2021/04/03 04:48:58;;;;;;;11.55;5.53;;;;;;;2.67;92.17;101186.31;4993995;28;20045;-73
2021/04/03 04:51:25;;;;;;;12.43;5.40;;;;;;;2.59;92.72;101194.22;5005442;28;20669;-73
2021/04/03 04:53:52;;;;;;;10.43;4.75;;;;;;;2.78;91.92;101193.03;5000920;28;20045;-72
2021/04/03 04:56:22;;;;;;;13.18;4.50;;;;;;;2.84;91.22;101192.06;5035659;23;20167;-70
2021/04/03 04:58:49;;;;;;;12.80;5.55;;;;;;;2.78;91.32;101194.75;4995084;28;20046;-72
2021/04/03 05:01:16;;;;;;;14.88;5.35;;;;;;;2.83;91.00;101198.13;4984224;28;20369;-71
2021/04/03 05:03:43;;;;;;;15.57;5.10;;;;;;;2.89;90.50;101198.03;5010627;28;20405;-72
2021/04/03 05:06:10;;;;;;;14.38;5.68;;;;;;;2.95;90.12;101199.66;5013130;28;20060;-72
2021/04/03 05:08:37;;;;;;;8.25;4.85;;;;;;;2.92;89.90;101203.16;5004256;28;20120;-72
2021/04/03 05:11:04;;;;;;;11.25;5.15;;;;;;;2.93;90.04;101204.91;4999648;28;20106;-72
2021/04/03 05:13:31;;;;;;;11.30;5.80;;;;;;;2.96;89.60;101206.59;4995390;28;20133;-71
2021/04/03 05:15:58;;;;;;;11.43;5.60;;;;;;;3.09;88.92;101210.66;4998641;28;20053;-70
2021/04/03 05:18:25;;;;;;;10.57;4.80;;;;;;;3.71;86.86;101212.91;5006772;28;20449;-71
2021/04/03 05:20:52;;;;;;;12.70;4.97;;;;;;;4.45;83.24;101223.38;4977457;28;20200;-72
2021/04/03 05:23:19;;;;;;;16.77;4.57;;;;;;;4.66;81.50;101219.41;4983460;28;20060;-73
2021/04/03 05:25:47;;;;;;;9.95;5.05;;;;;;;4.79;81.26;101227.78;4963565;28;20046;-72
2021/04/03 05:28:14;;;;;;;10.80;4.75;;;;;;;5.64;77.60;101226.34;4979855;28;20054;-72
2021/04/03 05:30:43;;;;;;;12.50;4.40;;;;;;;6.42;73.47;101226.63;5002793;28;20049;-71
2021/04/03 05:33:10;;;;;;;8.50;4.45;;;;;;;6.18;73.69;101229.09;4999468;28;20137;-70
2021/04/03 05:35:37;;;;;;;10.25;4.45;;;;;;;6.13;73.94;101245.84;4986707;28;20046;-71
2021/04/03 05:38:04;;;;;;;13.00;5.43;;;;;;;5.84;74.73;101248.38;4985755;28;20235;-70
2021/04/03 05:40:31;;;;;;;14.75;5.15;;;;;;;5.81;75.10;101248.47;4972772;28;20057;-72
2021/04/03 05:42:59;;;;;;;7.13;4.22;;;;;;;6.47;72.17;101245.63;5005078;28;20136;-69
2021/04/03 05:45:27;;;;;;;15.20;4.82;;;;;;;7.52;67.33;101236.78;4986106;28;20064;-71
2021/04/03 05:47:55;;;;;;;11.02;4.93;;;;;;;8.00;67.03;101245.47;4999286;28;20073;-72
2021/04/03 05:50:22;;;;;;;15.23;5.28;;;;;;;8.75;63.50;101253.88;4999731;28;20057;-70
2021/04/03 05:52:49;;;;;;;9.93;4.60;;;;;;;8.65;63.06;101260.44;4993519;28;20058;-70
2021/04/03 05:55:15;;;;;;;8.93;4.10;;;;;;;6.83;68.29;101260.13;4990416;28;20073;-71
2021/04/03 05:57:42;;;;;;;10.65;4.70;;;;;;;5.77;73.06;101272.13;4997071;28;20038;-71
2021/04/03 06:00:09;;;;;;;15.82;5.13;;;;;;;6.77;70.32;101270.81;5000632;28;20144;-72
2021/04/03 06:02:38;;;;;;;11.25;4.53;;;;;;;7.72;67.28;101267.50;4989179;28;20133;-71
2021/04/03 06:05:06;;;;;;;13.13;4.43;;;;;;;7.49;66.11;101273.56;4980825;28;20093;-71
2021/04/03 06:07:34;;;;;;;9.32;4.32;;;;;;;7.22;67.12;101262.31;4985430;28;20317;-70
2021/04/03 06:10:02;;;;;;;7.32;3.60;;;;;;;7.20;66.99;101279.81;4958456;28;20231;-70
2021/04/03 06:12:43;;;;;;;7.53;4.18;;;;;;;7.10;66.77;101283.66;4969735;28;20138;-70
2021/04/03 06:15:13;;;;;;;11.57;3.45;;;;;;;7.16;66.69;101283.47;5001081;28;20144;-71
2021/04/03 06:17:40;;;;;;;9.05;3.80;;;;;;;7.42;65.93;101289.56;4981500;28;20390;-70
2021/04/03 06:20:07;;;;;;;9.10;3.33;;;;;;;6.36;68.55;101293.06;4962590;28;20415;-72
2021/04/03 06:22:47;;;;;;;7.68;3.03;;;;;;;6.38;68.27;101299.06;4985845;28;20084;-71
2021/04/03 06:25:14;;;;;;;6.47;3.38;;;;;;;7.80;65.30;101290.81;4996565;28;20055;-71
2021/04/03 06:27:41;;;;;;;6.00;2.88;;;;;;;8.74;60.84;101299.44;4977991;28;20045;-72
2021/04/03 06:30:28;;;;;;;5.75;2.97;;;;;;;10.80;53.97;101289.31;4986200;28;20057;-72
2021/04/03 06:33:11;;;;;;;5.85;3.30;;;;;;;11.89;51.71;101302.22;4960581;28;20160;-71
2021/04/03 06:35:41;;;;;;;6.75;3.35;;;;;;;11.30;50.89;101295.59;4959686;28;20101;-72
2021/04/03 06:38:21;;;;;;;5.95;2.80;;;;;;;11.69;49.99;101299.75;4990733;28;20134;-72
2021/04/03 06:40:48;;;;;;;7.80;2.83;;;;;;;11.38;49.63;101303.97;4990300;28;20496;-71
2021/04/03 06:43:16;;;;;;;6.35;2.97;;;;;;;13.06;45.67;101317.69;4980806;28;20140;-71
2021/04/03 06:45:46;;;;;;;5.63;2.70;;;;;;;11.37;48.55;101315.47;4983381;28;20159;-72
2021/04/03 06:48:15;;;;;;;6.65;2.95;;;;;;;11.60;49.46;101309.84;4987093;28;20056;-71
2021/04/03 06:50:44;;;;;;;7.65;2.85;;;;;;;14.12;42.63;101315.66;4979798;28;20484;-71
2021/04/03 06:53:15;;;;;;;8.38;2.83;;;;;;;15.59;39.63;101306.00;5005875;28;20123;-71
2021/04/03 06:55:44;;;;;;;4.60;2.00;;;;;;;15.17;38.47;101300.03;4980167;28;20137;-71
2021/04/03 06:58:12;;;;;;;7.70;3.10;;;;;;;13.77;41.75;101323.13;4974327;28;20058;-71
2021/04/03 07:00:39;;;;;;;5.38;2.60;;;;;;;12.01;45.55;101325.28;4969477;28;20058;-72
2021/04/03 07:03:19;;;;;;;7.22;3.05;;;;;;;12.99;44.89;101317.19;5002187;28;20140;-71
2021/04/03 07:05:46;;;;;;;5.72;2.65;;;;;;;12.20;44.65;101321.66;4977204;28;20053;-71
2021/04/03 07:08:14;;;;;;;6.30;2.63;;;;;;;14.79;39.98;101325.56;4976955;28;20118;-72
2021/04/03 07:10:48;;;;;;;5.45;1.90;;;;;;;14.55;38.88;101315.63;4997458;28;20049;-70
2021/04/03 07:13:15;;;;;;;4.88;2.25;;;;;;;14.49;38.90;101328.41;4995859;28;20073;-70
2021/04/03 07:15:44;;;;;;;10.30;2.88;;;;;;;15.94;36.75;101316.84;4980046;28;20105;-72
2021/04/03 07:18:11;;;;;;;7.20;2.30;;;;;;;12.95;41.50;101331.50;4973419;28;20526;-71
2021/04/03 07:20:38;;;;;;;8.15;2.38;;;;;;;16.40;35.57;101326.00;4984261;28;20532;-70
2021/04/03 07:23:12;;;;;;;7.40;2.17;;;;;;;15.81;34.68;101312.50;5001107;28;20058;-69
2021/04/03 07:25:43;;;;;;;3.88;1.70;;;;;;;14.68;36.00;101334.25;4990890;28;20562;-70
2021/04/03 07:28:11;;;;;;;3.22;1.50;;;;;;;15.94;34.42;101321.31;4970804;28;20077;-71
2021/04/03 07:30:39;;;;;;;3.85;1.60;;;;;;;14.87;35.80;101325.94;5007016;28;20126;-71
2021/04/03 07:33:11;;;;;;;8.63;1.73;;;;;;;14.58;35.73;101338.41;5005944;28;20054;-71
2021/04/03 07:35:44;;;;;;;7.78;1.45;;;;;;;16.65;32.25;101336.53;4989730;28;20046;-71
2021/04/03 07:38:12;;;;;;;4.20;1.35;;;;;;;15.60;33.56;101344.84;4997207;28;20125;-71
2021/04/03 07:40:41;;;;;;;2.55;1.77;;;;;;;15.12;34.17;101343.69;4992203;28;20100;-71
2021/04/03 07:43:27;;;;;;;2.53;0.90;;;;;;;17.15;31.49;101336.44;4982502;28;20073;-70
2021/04/03 07:45:56;;;;;;;13.50;2.83;;;;;;;16.46;31.91;101331.72;5010468;28;20050;-72
2021/04/03 07:48:38;;;;;;;5.90;1.77;;;;;;;18.84;28.20;101340.91;5014889;28;20141;-72
2021/04/03 07:51:06;;;;;;;4.05;1.55;;;;;;;18.36;28.29;101333.22;4985764;28;20065;-71
2021/04/03 07:53:40;;;;;;;2.67;1.45;;;;;;;16.41;30.75;101343.63;4964164;28;20050;-71
2021/04/03 07:56:09;;;;;;;4.82;1.20;;;;;;;16.56;29.87;101350.50;4997961;28;20050;-71
2021/04/03 07:58:37;;;;;;;4.60;1.70;;;;;;;17.33;29.49;101348.34;4984372;28;20056;-71
2021/04/03 08:01:19;;;;;;;6.35;1.75;;;;;;;18.74;26.80;101355.13;4982933;28;20082;-71
2021/04/03 08:03:57;;;;;;;3.88;1.55;;;;;;;18.89;26.70;101357.38;4978423;28;20084;-70
2021/04/03 08:06:30;;;;;;;4.07;1.23;;;;;;;18.82;26.49;101356.19;4993109;28;20053;-70
2021/04/03 08:08:58;;;;;;;12.85;1.70;;;;;;;18.09;28.03;101351.41;4968327;28;20053;-70
2021/04/03 08:11:25;;;;;;;4.78;1.48;;;;;;;18.41;26.29;101354.16;4962206;28;20129;-70
2021/04/03 08:13:55;;;;;;;7.95;1.23;;;;;;;15.38;29.46;101352.56;4982457;28;20146;-70
2021/04/03 08:16:27;;;;;;;7.55;1.15;;;;;;;16.95;28.02;101359.22;4977463;28;20054;-71
2021/04/03 08:18:55;;;;;;;7.00;1.00;;;;;;;18.24;26.65;101366.19;4966731;28;20066;-71
2021/04/03 08:21:23;;;;;;;11.55;1.20;;;;;;;17.25;28.03;101358.75;4983287;28;20081;-70
2021/04/03 08:23:52;;;;;;;3.10;0.80;;;;;;;13.35;32.70;101379.47;4983745;28;20046;-73
2021/04/03 08:26:21;;;;;;;4.15;1.13;;;;;;;15.03;30.97;101366.38;4999304;28;20054;-71
2021/04/03 08:28:47;;;;;;;2.85;1.17;;;;;;;17.74;27.50;101359.47;4979353;28;20050;-71
2021/04/03 08:31:23;;;;;;;4.43;1.63;;;;;;;16.71;28.53;101351.22;4997916;28;20461;-71
2021/04/03 08:33:52;;;;;;;3.08;1.10;;;;;;;18.27;26.91;101370.41;4963700;28;20042;-71
2021/04/03 08:36:26;;;;;;;3.75;1.30;;;;;;;19.12;25.84;101366.13;4972764;28;20488;-71
2021/04/03 08:38:55;;;;;;;2.10;1.10;;;;;;;15.95;29.07;101373.47;4986329;28;20635;-72
2021/04/03 08:41:27;;;;;;;4.28;0.90;;;;;;;15.30;30.78;101370.81;4985488;28;20046;-72
2021/04/03 08:43:56;;;;;;;3.95;0.90;;;;;;;16.92;28.30;101375.38;4983940;28;20695;-72
2021/04/03 08:46:24;;;;;;;4.10;1.10;;;;;;;14.62;32.01;101375.22;4967858;28;20052;-72
2021/04/03 08:48:57;;;;;;;3.30;0.88;;;;;;;12.79;35.56;101384.41;4964935;28;20046;-70
2021/04/03 08:51:25;;;;;;;4.03;1.42;;;;;;;11.41;38.71;101402.22;4974857;28;20046;-71
2021/04/03 08:53:54;;;;;;;2.10;1.30;;;;;;;10.24;40.67;101397.28;4972992;28;20390;-71
2021/04/03 08:56:29;;;;;;;2.72;1.30;;;;;;;9.33;44.19;101405.59;5005591;28;20057;-71
2021/04/03 08:59:01;;;;;;;2.33;1.10;;;;;;;9.51;44.16;101404.81;4987417;28;20111;-71
2021/04/03 09:01:31;;;;;;;3.40;1.52;;;;;;;8.29;46.78;101407.00;4987125;28;20072;-71
2021/04/03 09:04:04;;;;;;;4.68;1.05;;;;;;;8.19;47.45;101400.38;4976057;28;20058;-71
2021/04/03 09:06:47;;;;;;;5.40;1.70;;;;;;;8.81;46.01;101410.28;4966791;28;20057;-71
2021/04/03 09:09:14;;;;;;;3.33;0.93;;;;;;;9.08;45.71;101410.97;5006682;28;20050;-72
2021/04/03 09:11:58;;;;;;;3.75;1.00;;;;;;;8.48;46.61;101399.34;4983181;28;20582;-71
2021/04/03 09:14:35;;;;;;;4.85;1.00;;;;;;;8.75;46.07;101411.41;4988799;28;20420;-71
2021/04/03 09:17:04;;;;;;;8.60;1.25;;;;;;;9.20;45.12;101414.91;5009430;28;20057;-72
2021/04/03 09:19:36;;;;;;;2.75;1.08;;;;;;;8.83;46.11;101411.09;4951595;28;20085;-72
2021/04/03 09:22:04;;;;;;;3.30;1.05;;;;;;;9.19;45.26;101421.06;4987968;28;20157;-72
2021/04/03 09:24:56;;;;;;;5.15;1.40;;;;;;;8.44;46.67;101422.19;4983541;28;20042;-73
2021/04/03 09:27:25;;;;;;;8.20;0.95;;;;;;;8.59;46.75;101424.25;4981769;28;20110;-72
2021/04/03 09:30:06;;;;;;;3.30;0.80;;;;;;;8.12;47.00;101431.22;4981699;28;20110;-71
2021/04/03 09:32:49;;;;;;;3.90;1.08;;;;;;;8.45;46.86;101426.53;4978716;28;20572;-71
2021/04/03 09:35:24;;;;;;;2.05;0.70;;;;;;;8.53;46.42;101427.09;4981315;28;20081;-71
2021/04/03 09:38:03;;;;;;;5.05;0.70;;;;;;;8.45;46.63;101426.53;4980333;28;20066;-71
2021/04/03 09:40:39;;;;;;;2.58;1.08;;;;;;;8.61;46.59;101432.06;4991418;28;20162;-71
2021/04/03 09:43:06;;;;;;;3.78;1.10;;;;;;;8.34;46.07;101420.81;4977083;28;20046;-71
2021/04/03 09:45:33;;;;;;;3.55;0.80;;;;;;;7.96;46.48;101430.88;5005580;28;20130;-72
2021/04/03 09:48:00;;;;;;;3.65;0.88;;;;;;;7.57;48.20;101430.53;4979308;28;20078;-72
2021/04/03 09:50:27;;;;;;;2.65;0.93;;;;;;;7.71;47.90;101424.81;4966017;28;20049;-72
2021/04/03 09:52:55;;;;;;;2.90;1.00;;;;;;;8.32;46.26;101414.75;4965677;28;20038;-72
2021/04/03 09:55:22;;;;;;;1.58;0.70;;;;;;;8.69;45.02;101408.13;4989096;28;20433;-73
2021/04/03 09:57:49;;;;;;;2.83;0.90;;;;;;;9.52;43.37;101406.53;4990057;28;20319;-72
2021/04/03 10:00:16;;;;;;;2.65;0.73;;;;;;;9.51;42.12;101419.75;4975696;28;20046;-71
2021/04/03 10:02:49;;;;;;;1.75;0.65;;;;;;;9.12;42.49;101423.94;4995534;28;20073;-72
2021/04/03 10:05:16;;;;;;;5.20;0.80;;;;;;;8.82;42.75;101423.34;4995574;28;20058;-73
2021/04/03 10:07:43;;;;;;;2.22;0.60;;;;;;;8.15;44.54;101420.63;4967582;28;20125;-72
2021/04/03 10:10:10;;;;;;;2.33;0.80;;;;;;;8.64;44.27;101416.19;4986977;28;20055;-70
2021/04/03 10:12:37;;;;;;;6.30;1.10;;;;;;;8.70;44.76;101423.00;4980107;28;20145;-71
2021/04/03 10:15:05;;;;;;;3.08;0.88;;;;;;;8.13;45.75;101425.06;5014219;28;20046;-71
2021/04/03 10:17:32;;;;;;;2.35;0.82;;;;;;;8.51;45.28;101426.31;4974355;28;20066;-71
2021/04/03 10:19:59;;;;;;;1.90;0.88;;;;;;;8.50;44.46;101437.69;4972347;28;20049;-71
2021/04/03 10:22:26;;;;;;;3.20;0.70;;;;;;;8.35;45.09;101439.09;4990222;28;20115;-71
2021/04/03 10:24:54;;;;;;;2.55;0.93;;;;;;;7.87;46.52;101429.44;4986909;28;20062;-72
2021/04/03 10:27:21;;;;;;;1.75;1.00;;;;;;;7.96;47.00;101428.28;4982526;28;20472;-72
2021/04/03 10:29:48;;;;;;;6.65;1.13;;;;;;;8.17;43.74;101434.53;4981778;28;20170;-72
2021/04/03 10:32:14;;;;;;;3.25;0.77;;;;;;;8.79;42.06;101426.13;5000390;28;20054;-71
2021/04/03 10:34:41;;;;;;;3.22;1.10;;;;;;;9.29;40.51;101419.78;4997418;28;20050;-71
2021/04/03 10:37:08;;;;;;;4.55;0.80;;;;;;;9.47;40.28;101429.53;4988662;28;20056;-72
2021/04/03 10:39:35;;;;;;;3.83;0.85;;;;;;;9.29;41.43;101418.00;5006699;28;20104;-72
2021/04/03 10:42:02;;;;;;;2.60;0.90;;;;;;;9.78;40.98;101420.34;5006622;28;20078;-71
2021/04/03 10:44:28;;;;;;;5.25;0.80;;;;;;;10.33;39.61;101426.69;4976916;28;20056;-71
2021/04/03 10:46:55;;;;;;;2.30;0.95;;;;;;;10.46;39.03;101428.78;4983197;28;20053;-71
2021/04/03 10:49:24;;;;;;;4.50;0.80;;;;;;;9.50;40.01;101415.38;4973069;28;20209;-71
2021/04/03 10:52:00;;;;;;;5.38;0.95;;;;;;;9.53;39.90;101425.78;4992427;28;20099;-72
2021/04/03 10:54:27;;;;;;;2.70;0.60;;;;;;;8.85;38.37;101436.38;4987530;28;20148;-72
2021/04/03 10:56:53;;;;;;;3.50;0.77;;;;;;;8.70;38.16;101436.97;4979154;28;20224;-71
2021/04/03 10:59:20;;;;;;;3.28;0.60;;;;;;;8.92;38.33;101442.25;4987293;28;20073;-72
2021/04/03 11:01:47;;;;;;;1.92;0.50;;;;;;;8.90;38.88;101436.19;4970631;28;20053;-74
2021/04/03 11:04:14;;;;;;;5.28;0.95;;;;;;;9.26;38.61;101435.66;4970066;28;20158;-72
2021/04/03 11:06:41;;;;;;;3.80;0.77;;;;;;;9.39;38.18;101440.34;4970928;28;20200;-71
2021/04/03 11:09:11;;;;;;;2.97;0.73;;;;;;;9.45;37.97;101441.00;4987525;28;20054;-72
2021/04/03 11:11:41;;;;;;;1.42;0.77;;;;;;;8.95;39.91;101462.28;4983630;28;20030;-72
2021/04/03 11:14:08;;;;;;;4.95;0.85;;;;;;;8.57;42.96;101452.31;4966882;28;20444;-71
2021/04/03 11:16:35;;;;;;;7.65;1.35;;;;;;;8.64;43.63;101455.56;4998416;28;20128;-72
2021/04/03 11:19:02;;;;;;;10.48;1.45;;;;;;;8.41;44.73;101458.19;4984542;28;20062;-71
2021/04/03 11:21:29;;;;;;;11.32;2.45;;;;;;;8.22;45.53;101466.69;4989864;28;20089;-72
2021/04/03 11:23:56;;;;;;;3.05;1.00;;;;;;;8.33;45.06;101461.03;4965107;28;20141;-72
2021/04/03 11:26:23;;;;;;;8.10;1.02;;;;;;;7.93;46.15;101462.47;5004442;28;20093;-71
2021/04/03 11:28:50;;;;;;;4.35;1.13;;;;;;;7.85;45.77;101457.50;4979837;28;20077;-72
2021/04/03 11:31:17;;;;;;;2.72;0.70;;;;;;;7.84;44.88;101461.03;4981839;28;20105;-72
2021/04/03 11:33:43;;;;;;;2.42;0.60;;;;;;;7.97;44.41;101471.97;4952476;28;20141;-72
2021/04/03 11:36:12;;;;;;;5.43;0.90;;;;;;;7.70;45.31;101472.88;5004903;28;20540;-73
2021/04/03 11:38:38;;;;;;;3.70;0.50;;;;;;;7.67;45.06;101479.09;5008811;28;20050;-72
2021/04/03 11:41:05;;;;;;;5.45;0.88;;;;;;;8.07;44.46;101472.50;4984872;28;20058;-70